createdAt,value
2018-11-23T00:02:12.091Z,42.03
2018-11-23T00:04:55.388Z,50.40
2018-11-23T00:07:37.907Z,49.70
2018-11-23T00:10:22.118Z,48.30
2018-11-23T00:13:02.867Z,50.23
2018-11-23T00:15:44.838Z,46.47
2018-11-23T00:18:26.046Z,48.37
2018-11-23T00:21:08.056Z,49.57
2018-11-23T00:23:49.152Z,47.80
2018-11-23T00:26:30.444Z,52.90
2018-11-23T00:29:11.249Z,47.73
2018-11-23T00:31:52.678Z,46.90
2018-11-23T00:34:33.282Z,42.80
2018-11-23T00:37:14.930Z,46.80
2018-11-23T00:39:55.846Z,49.80
2018-11-23T00:42:37.145Z,47.50
2018-11-23T00:45:17.932Z,49.83
2018-11-23T00:48:00.529Z,51.30
2018-11-23T00:50:41.741Z,48.37
2018-11-23T00:53:23.239Z,47.27
2018-11-23T00:56:04.080Z,47.00
2018-11-23T00:58:46.090Z,49.23
2018-11-23T01:01:28.440Z,49.80
2018-11-23T01:04:10.307Z,54.37
2018-11-23T01:06:52.487Z,53.67
2018-11-23T01:09:34.256Z,53.77
2018-11-23T01:12:16.028Z,53.97
2018-11-23T01:14:57.993Z,55.40
2018-11-23T01:17:39.752Z,56.87
2018-11-23T01:20:23.485Z,54.90
2018-11-23T01:23:05.655Z,55.43
2018-11-23T01:25:47.480Z,56.93
2018-11-23T01:28:28.164Z,60.50
2018-11-23T01:31:09.252Z,56.20
2018-11-23T01:33:50.113Z,60.10
2018-11-23T01:36:31.963Z,57.67
2018-11-23T01:39:12.704Z,63.23
2018-11-23T01:41:54.590Z,61.20
2018-11-23T01:44:36.979Z,59.77
2018-11-23T01:47:20.986Z,62.60
2018-11-23T01:50:02.121Z,59.67
2018-11-23T01:52:44.614Z,64.97
2018-11-23T01:55:25.321Z,64.60
2018-11-23T01:58:07.511Z,62.33
2018-11-23T02:00:49.127Z,61.60
2018-11-23T02:03:30.582Z,63.10
2018-11-23T02:06:11.414Z,65.53
2018-11-23T02:08:52.633Z,67.20
2018-11-23T02:11:33.913Z,60.50
2018-11-23T02:16:56.820Z,59.90
2018-11-23T02:19:39.704Z,60.90
2018-11-23T02:22:21.920Z,62.63
2018-11-23T02:25:03.848Z,57.87
2018-11-23T02:27:46.324Z,55.10
2018-11-23T02:30:29.762Z,64.90
2018-11-23T02:33:12.957Z,59.57
2018-11-23T02:35:55.775Z,58.47
2018-11-23T02:38:39.123Z,58.87
2018-11-23T02:41:20.995Z,57.37
2018-11-23T02:44:02.374Z,55.10
2018-11-23T02:46:44.861Z,57.03
2018-11-23T02:49:26.729Z,56.23
2018-11-23T02:52:10.036Z,53.27
2018-11-23T02:54:52.172Z,60.73
2018-11-23T02:57:35.148Z,59.10
2018-11-23T03:00:16.838Z,57.23
2018-11-23T03:02:59.806Z,59.10
2018-11-23T03:05:41.547Z,59.20
2018-11-23T03:08:24.159Z,58.10
2018-11-23T03:11:04.844Z,61.50
2018-11-23T03:13:50.632Z,61.37
2018-11-23T03:16:31.507Z,61.70
2018-11-23T03:19:13.514Z,56.87
2018-11-23T03:21:54.365Z,59.90
2018-11-23T03:24:36.500Z,56.40
2018-11-23T03:27:17.414Z,57.97
2018-11-23T03:29:59.473Z,58.20
2018-11-23T03:32:40.145Z,57.07
2018-11-23T03:35:22.115Z,60.97
2018-11-23T03:38:03.781Z,63.33
2018-11-23T03:40:45.657Z,65.27
2018-11-23T03:43:28.666Z,62.97
2018-11-23T03:46:11.040Z,62.60
2018-11-23T03:48:52.616Z,56.97
2018-11-23T03:54:15.741Z,58.97
2018-11-23T03:56:56.598Z,55.50
2018-11-23T03:59:37.580Z,57.50
2018-11-23T04:02:19.428Z,56.73
2018-11-23T04:05:01.170Z,55.27
2018-11-23T04:07:43.041Z,56.93
2018-11-23T04:10:25.128Z,60.43
2018-11-23T04:13:06.856Z,56.13
2018-11-23T04:15:47.589Z,56.50
2018-11-23T04:18:29.642Z,54.47
2018-11-23T04:21:11.491Z,55.83
2018-11-23T04:23:53.274Z,58.70
2018-11-23T04:26:35.042Z,58.43
2018-11-23T04:29:18.856Z,55.53
2018-11-23T04:35:03.735Z,53.57
2018-11-23T04:37:46.202Z,51.27
2018-11-23T04:40:27.021Z,50.50
2018-11-23T04:43:08.400Z,52.67
2018-11-23T04:45:49.359Z,51.10
2018-11-23T04:48:31.153Z,55.20
2018-11-23T04:51:11.936Z,54.10
2018-11-23T04:53:53.571Z,56.10
2018-11-23T04:56:34.941Z,62.50
2018-11-23T04:59:16.426Z,65.20
2018-11-23T05:01:57.437Z,59.97
2018-11-23T05:04:38.782Z,65.37
2018-11-23T05:07:21.218Z,64.47
2018-11-23T05:10:03.339Z,64.40
2018-11-23T05:12:45.399Z,71.07
2018-11-23T05:15:28.181Z,76.30
2018-11-23T05:18:09.777Z,71.90
2018-11-23T05:20:50.897Z,67.80
2018-11-23T05:23:31.611Z,73.77
2018-11-23T05:26:13.929Z,74.47
2018-11-23T05:28:55.814Z,74.20
2018-11-23T05:31:36.985Z,74.67
2018-11-23T05:34:18.458Z,76.47
2018-11-23T05:37:00.065Z,71.17
2018-11-23T05:39:41.173Z,72.93
2018-11-23T05:42:22.737Z,67.37
2018-11-23T05:45:04.646Z,65.30
2018-11-23T05:47:48.911Z,63.63
2018-11-23T05:50:28.413Z,62.93
2018-11-23T05:53:11.682Z,62.07
2018-11-23T05:55:53.572Z,68.43
2018-11-23T05:58:34.588Z,61.77
2018-11-23T06:01:16.491Z,72.13
2018-11-23T06:03:59.252Z,63.27
2018-11-23T06:06:42.475Z,62.93
2018-11-23T06:09:24.919Z,65.60
2018-11-23T06:12:06.501Z,66.83
2018-11-23T06:14:49.696Z,61.20
2018-11-23T06:17:31.367Z,59.07
2018-11-23T06:20:15.523Z,59.73
2018-11-23T06:22:57.730Z,67.57
2018-11-23T06:25:40.458Z,74.50
2018-11-23T06:28:24.136Z,67.40
2018-11-23T06:31:28.639Z,75.23
2018-11-23T06:34:04.069Z,85.03
2018-11-23T06:36:48.264Z,96.40
2018-11-23T06:39:31.668Z,78.33
2018-11-23T06:42:14.609Z,91.77
2018-11-23T06:44:58.114Z,97.33
2018-11-23T06:47:41.257Z,100.47
2018-11-23T06:50:23.103Z,86.30
2018-11-23T06:53:05.120Z,77.30
2018-11-23T06:55:47.163Z,69.47
2018-11-23T06:58:28.979Z,67.00
2018-11-23T07:01:10.887Z,73.87
2018-11-23T07:03:52.895Z,80.37
2018-11-23T07:06:34.623Z,82.40
2018-11-23T07:09:16.668Z,81.37
2018-11-23T07:11:58.582Z,85.10
2018-11-23T07:14:39.670Z,88.97
2018-11-23T07:17:20.542Z,84.07
2018-11-23T07:20:02.562Z,85.53
2018-11-23T07:22:43.962Z,93.23
2018-11-23T07:25:25.090Z,91.73
2018-11-23T07:28:05.694Z,84.73
2018-11-23T07:30:47.605Z,85.27
2018-11-23T07:33:29.389Z,83.73
2018-11-23T07:36:10.704Z,78.47
2018-11-23T07:38:51.770Z,80.53
2018-11-23T07:41:34.104Z,74.27
2018-11-23T07:44:15.878Z,76.80
2018-11-23T07:46:57.866Z,72.90
2018-11-23T07:49:38.667Z,74.50
2018-11-23T07:52:20.773Z,82.57
2018-11-23T07:55:02.555Z,73.10
2018-11-23T07:57:45.608Z,80.37
2018-11-23T08:00:28.041Z,81.67
2018-11-23T08:03:09.510Z,85.70
2018-11-23T08:05:50.620Z,81.27
2018-11-23T08:08:32.384Z,83.03
2018-11-23T08:11:13.958Z,84.40
2018-11-23T08:13:55.696Z,79.30
2018-11-23T08:16:36.640Z,77.00
2018-11-23T08:19:18.932Z,72.73
2018-11-23T08:25:12.162Z,75.10
2018-11-23T08:27:55.519Z,88.23
2018-11-23T08:30:37.473Z,78.03
2018-11-23T08:33:18.792Z,71.27
2018-11-23T08:35:59.584Z,73.03
2018-11-23T08:38:41.671Z,65.80
2018-11-23T08:41:23.215Z,67.00
2018-11-23T08:44:04.815Z,59.60
2018-11-23T08:46:46.120Z,63.30
2018-11-23T08:49:29.321Z,64.00
2018-11-23T08:52:11.324Z,58.38
2018-11-23T08:54:53.429Z,57.03
2018-11-23T08:57:34.912Z,53.67
2018-11-23T09:00:17.714Z,56.50
2018-11-23T09:03:01.076Z,56.53
2018-11-23T09:05:42.600Z,55.70
2018-11-23T09:08:24.250Z,54.35
2018-11-23T09:11:05.561Z,49.63
2018-11-23T09:13:46.410Z,47.87
2018-11-23T09:16:28.589Z,42.23
2018-11-23T09:19:10.305Z,38.70
2018-11-23T09:21:54.415Z,42.13
2018-11-23T09:24:35.955Z,45.53
2018-11-23T09:27:18.798Z,49.47
2018-11-23T09:30:01.166Z,48.87
2018-11-23T09:32:45.052Z,50.63
2018-11-23T09:35:27.087Z,50.47
2018-11-23T09:38:10.373Z,51.70
2018-11-23T09:40:52.235Z,54.27
2018-11-23T09:43:35.398Z,52.23
2018-11-23T09:46:17.137Z,53.00
2018-11-23T09:49:00.029Z,52.07
2018-11-23T09:51:43.677Z,50.77
2018-11-23T09:54:26.994Z,46.33
2018-11-23T10:00:15.506Z,51.87
2018-11-23T10:03:00.386Z,51.20
2018-11-23T10:05:50.090Z,49.27
2018-11-23T10:08:38.077Z,52.00
2018-11-23T10:11:20.627Z,51.67
2018-11-23T10:14:39.438Z,52.65
2018-11-23T10:17:09.142Z,48.37
2018-11-23T10:19:40.700Z,47.33
2018-11-23T10:22:12.333Z,48.97
2018-11-23T10:24:42.110Z,57.03
2018-11-23T10:27:11.887Z,55.50
2018-11-23T10:29:42.835Z,56.00
2018-11-23T10:32:13.681Z,55.55
2018-11-23T10:34:43.817Z,57.70
2018-11-23T10:37:16.196Z,59.50
2018-11-23T10:39:45.953Z,59.70
2018-11-23T10:42:16.691Z,61.43
2018-11-23T10:44:46.501Z,56.97
2018-11-23T10:47:16.814Z,57.47
2018-11-23T10:49:46.987Z,60.98
2018-11-23T10:52:17.895Z,59.55
2018-11-23T11:01:50.966Z,53.23
2018-11-23T11:04:29.491Z,75.37
2018-11-23T11:07:04.867Z,57.27
2018-11-23T11:09:34.779Z,62.70
2018-11-23T11:12:04.927Z,58.30
2018-11-23T11:14:34.594Z,57.43
2018-11-23T11:17:04.339Z,61.90
2018-11-23T11:19:34.019Z,58.60
2018-11-23T11:22:03.642Z,56.00
2018-11-23T11:24:35.865Z,56.33
2018-11-23T11:27:06.033Z,55.93
2018-11-23T11:29:39.808Z,59.53
2018-11-23T11:32:13.553Z,62.35
2018-11-23T11:34:44.261Z,64.30
2018-11-23T11:37:13.984Z,66.87
2018-11-23T11:39:43.707Z,65.83
2018-11-23T11:42:13.863Z,60.33
2018-11-23T11:44:43.341Z,60.90
2018-11-23T11:47:13.243Z,60.23
2018-11-23T11:49:42.974Z,57.40
2018-11-23T11:52:15.073Z,64.20
2018-11-23T11:54:45.734Z,58.53
2018-11-23T11:57:15.757Z,57.27
2018-11-23T11:59:46.350Z,59.30
2018-11-23T12:02:15.931Z,60.57
2018-11-23T12:04:45.513Z,61.60
2018-11-23T12:07:16.197Z,62.83
2018-11-23T12:09:46.278Z,61.90
2018-11-23T12:12:19.165Z,60.93
2018-11-23T12:14:48.639Z,60.98
2018-11-23T12:17:18.180Z,58.98
2018-11-23T12:19:48.272Z,52.00
2018-11-23T12:22:19.130Z,51.53
2018-11-23T12:24:48.941Z,48.40
2018-11-23T12:27:19.123Z,50.37
2018-11-23T12:29:48.783Z,51.53
2018-11-23T12:32:19.728Z,54.27
2018-11-23T12:34:52.079Z,49.60
2018-11-23T12:37:23.142Z,51.50
2018-11-23T12:39:53.352Z,51.37
2018-11-23T12:42:24.039Z,55.63
2018-11-23T12:44:53.491Z,54.10
2018-11-23T12:47:23.219Z,53.90
2018-11-23T12:49:52.801Z,56.70
2018-11-23T12:52:22.456Z,54.90
2018-11-23T12:54:51.884Z,51.70
2018-11-23T12:57:21.142Z,52.80
2018-11-23T12:59:50.408Z,55.90
2018-11-23T13:02:19.781Z,53.97
2018-11-23T13:04:49.284Z,54.53
2018-11-23T13:07:18.694Z,59.30
2018-11-23T13:09:48.179Z,54.57
2018-11-23T13:12:17.613Z,54.57
2018-11-23T13:14:52.871Z,51.33
2018-11-23T13:17:24.143Z,49.20
2018-11-23T13:19:54.012Z,47.55
2018-11-23T13:22:24.932Z,44.83
2018-11-23T13:24:54.573Z,42.70
2018-11-23T13:27:24.166Z,44.47
2018-11-23T13:29:53.102Z,43.03
2018-11-23T13:32:22.755Z,43.63
2018-11-23T13:34:58.112Z,41.37
2018-11-23T13:37:32.885Z,39.57
2018-11-23T13:40:09.017Z,42.57
2018-11-23T13:42:45.699Z,39.83
2018-11-23T13:45:23.692Z,39.70
2018-11-23T13:48:00.030Z,43.13
2018-11-23T13:50:30.629Z,37.77
2018-11-23T13:53:01.397Z,40.17
2018-11-23T13:55:40.442Z,38.67
2018-11-23T13:58:16.795Z,41.67
2018-11-23T14:00:47.124Z,41.37
2018-11-23T14:03:16.380Z,48.23
2018-11-23T14:05:45.599Z,47.67
2018-11-23T14:08:15.166Z,48.93
2018-11-23T14:10:44.553Z,50.60
2018-11-23T14:13:15.178Z,48.73
2018-11-23T14:15:45.778Z,47.67
2018-11-23T14:18:15.462Z,48.47
2018-11-23T14:20:45.376Z,44.93
2018-11-23T14:23:15.003Z,47.80
2018-11-23T14:25:44.677Z,48.73
2018-11-23T14:28:14.705Z,45.83
2018-11-23T14:30:45.420Z,44.53
2018-11-23T14:33:14.439Z,45.50
2018-11-23T14:35:43.966Z,47.33
2018-11-23T14:38:13.693Z,48.67
2018-11-23T14:40:43.250Z,58.67
2018-11-23T14:43:12.758Z,53.47
2018-11-23T14:45:42.416Z,53.23
2018-11-23T14:48:14.298Z,52.03
2018-11-23T14:50:47.546Z,51.53
2018-11-23T14:53:17.336Z,49.80
2018-11-23T14:55:46.837Z,51.07
2018-11-23T14:58:16.287Z,51.97
2018-11-23T15:00:45.923Z,51.23
2018-11-23T15:03:15.435Z,54.23
2018-11-23T15:05:45.104Z,44.40
2018-11-23T15:08:16.552Z,46.07
2018-11-23T15:10:45.984Z,43.27
2018-11-23T15:13:15.505Z,42.53
2018-11-23T15:15:45.573Z,43.37
2018-11-23T15:18:15.713Z,41.97
2018-11-23T15:20:46.701Z,43.30
2018-11-23T15:23:18.477Z,41.90
2018-11-23T15:25:48.364Z,43.47
2018-11-23T15:28:17.994Z,45.90
2018-11-23T15:30:47.606Z,42.27
2018-11-23T15:33:47.557Z,42.23
2018-11-23T15:36:17.047Z,42.23
2018-11-23T15:38:47.508Z,48.23
2018-11-23T15:41:17.066Z,45.73
2018-11-23T15:43:46.514Z,45.10
2018-11-23T15:46:16.008Z,41.60
2018-11-23T15:48:45.535Z,42.67
2018-11-23T15:51:15.050Z,39.83
2018-11-23T15:53:44.423Z,40.07
2018-11-23T15:56:14.302Z,40.17
2018-11-23T15:58:43.906Z,40.07
2018-11-23T16:01:13.480Z,41.47
2018-11-23T16:03:43.367Z,40.93
2018-11-23T16:06:13.228Z,42.20
2018-11-23T16:08:56.997Z,39.33
2018-11-23T16:11:27.259Z,42.63
2018-11-23T16:13:59.531Z,43.97
2018-11-23T16:16:29.076Z,42.73
2018-11-23T16:18:58.609Z,40.27
2018-11-23T16:21:27.826Z,38.73
2018-11-23T16:23:57.389Z,37.00
2018-11-23T16:26:27.587Z,36.40
2018-11-23T16:28:57.891Z,35.77
2018-11-23T16:31:28.471Z,36.57
2018-11-23T16:33:57.964Z,34.53
2018-11-23T16:36:27.522Z,33.93
2018-11-23T16:38:58.255Z,37.07
2018-11-23T16:41:28.833Z,35.43
2018-11-23T16:43:58.296Z,37.67
2018-11-23T16:46:28.892Z,36.53
2018-11-23T16:48:58.860Z,38.13
2018-11-23T16:51:28.385Z,36.50
2018-11-23T16:53:58.897Z,33.83
2018-11-23T16:56:28.225Z,33.97
2018-11-23T16:58:59.009Z,34.60
2018-11-23T17:01:28.037Z,34.00
2018-11-23T17:03:58.492Z,35.73
2018-11-23T17:06:27.748Z,35.47
2018-11-23T17:08:57.029Z,35.63
2018-11-23T17:11:26.550Z,46.23
2018-11-23T17:13:55.794Z,39.73
2018-11-23T17:16:25.473Z,38.47
2018-11-23T17:18:54.367Z,39.10
2018-11-23T17:21:23.865Z,34.93
2018-11-23T17:23:53.162Z,39.90
2018-11-23T17:26:22.584Z,36.27
2018-11-23T17:28:52.063Z,38.03
2018-11-23T17:31:21.652Z,39.07
2018-11-23T17:33:51.012Z,37.43
2018-11-23T17:36:20.395Z,41.17
2018-11-23T17:38:49.892Z,36.87
2018-11-23T17:41:19.476Z,37.83
2018-11-23T17:43:49.011Z,36.30
2018-11-23T17:46:18.292Z,35.40
2018-11-23T17:48:47.587Z,36.07
2018-11-23T17:51:16.980Z,34.90
2018-11-23T17:53:46.659Z,38.73
2018-11-23T17:56:15.803Z,38.00
2018-11-23T17:58:44.989Z,36.07
2018-11-23T18:01:14.464Z,34.80
2018-11-23T18:03:43.866Z,33.93
2018-11-23T18:06:13.216Z,32.60
2018-11-23T18:08:42.300Z,34.03
2018-11-23T18:11:11.442Z,33.77
2018-11-23T18:13:40.571Z,34.60
2018-11-23T18:16:09.973Z,33.67
2018-11-23T18:18:39.310Z,35.23
2018-11-23T18:21:08.700Z,34.07
2018-11-23T18:23:37.966Z,36.60
2018-11-23T18:26:07.157Z,34.63
2018-11-23T18:28:36.747Z,36.27
2018-11-23T18:31:05.566Z,36.60
2018-11-23T18:33:35.046Z,42.27
2018-11-23T18:36:04.420Z,37.57
2018-11-23T18:38:33.714Z,36.43
2018-11-23T18:41:03.184Z,36.87
2018-11-23T18:43:32.504Z,37.00
2018-11-23T18:46:01.850Z,82.13
2018-11-23T18:48:31.174Z,34.77
2018-11-23T18:51:00.436Z,36.40
2018-11-23T18:53:29.811Z,38.53
2018-11-23T18:55:59.246Z,34.93
2018-11-23T18:58:28.533Z,30.60
2018-11-23T19:00:57.900Z,34.50
2018-11-23T19:03:27.177Z,31.70
2018-11-23T19:05:57.746Z,37.73
2018-11-23T19:08:27.161Z,36.37
2018-11-23T19:10:56.572Z,36.20
2018-11-23T19:13:25.964Z,36.17
2018-11-23T19:15:55.276Z,32.00
2018-11-23T19:18:24.203Z,31.80
2018-11-23T19:20:53.713Z,31.00
2018-11-23T19:23:23.073Z,32.07
2018-11-23T19:25:52.635Z,38.60
2018-11-23T19:28:21.960Z,33.43
2018-11-23T19:30:51.389Z,30.87
2018-11-23T19:33:20.790Z,32.67
2018-11-23T19:35:50.155Z,32.80
2018-11-23T19:38:19.217Z,33.37
2018-11-23T19:40:48.431Z,31.47
2018-11-23T19:43:17.962Z,29.50
2018-11-23T19:45:47.378Z,29.17
2018-11-23T19:48:16.717Z,26.93
2018-11-23T19:50:45.712Z,31.23
2018-11-23T19:53:14.766Z,31.27
2018-11-23T19:55:44.233Z,30.23
2018-11-23T19:58:13.778Z,29.13
2018-11-23T20:00:43.094Z,28.27
2018-11-23T20:03:12.619Z,29.73
2018-11-23T20:05:42.117Z,28.80
2018-11-23T20:08:11.427Z,39.67
2018-11-23T20:10:40.726Z,30.53
2018-11-23T20:13:09.933Z,31.87
2018-11-23T20:15:39.228Z,30.35
2018-11-23T20:18:08.495Z,26.10
2018-11-23T20:20:37.928Z,29.33
2018-11-23T20:23:07.173Z,24.53
2018-11-23T20:25:36.450Z,23.83
2018-11-23T20:28:05.739Z,22.20
2018-11-23T20:30:42.118Z,19.37
2018-11-23T20:33:05.781Z,17.23
2018-11-23T20:35:36.508Z,16.30
2018-11-23T20:38:06.762Z,14.20
2018-11-23T20:40:37.122Z,15.07
2018-11-23T20:43:07.193Z,14.30
2018-11-23T20:45:37.308Z,13.67
2018-11-23T20:48:07.466Z,15.73
2018-11-23T20:50:37.609Z,14.63
2018-11-23T20:59:08.901Z,14.10
2018-11-23T21:01:38.393Z,12.13
2018-11-23T21:04:07.772Z,13.67
2018-11-23T21:06:37.078Z,12.13
2018-11-23T21:09:09.432Z,14.37
2018-11-23T21:11:39.009Z,14.13
2018-11-23T21:14:07.902Z,14.53
2018-11-23T21:16:37.268Z,14.40
2018-11-23T21:19:06.614Z,14.60
2018-11-23T21:21:35.969Z,14.73
2018-11-23T21:24:05.679Z,13.67
2018-11-23T21:26:35.134Z,13.23
2018-11-23T21:29:04.516Z,13.70
2018-11-23T21:31:33.798Z,14.00
2018-11-23T21:34:03.079Z,13.27
2018-11-23T21:36:32.584Z,13.57
2018-11-23T21:39:01.986Z,14.47
2018-11-23T21:41:31.461Z,14.50
2018-11-23T21:44:01.027Z,13.43
2018-11-23T21:46:30.480Z,16.60
2018-11-23T21:48:59.877Z,21.67
2018-11-23T21:51:29.131Z,18.57
2018-11-23T21:53:58.597Z,17.70
2018-11-23T21:56:27.493Z,19.40
2018-11-23T21:58:56.875Z,16.73
2018-11-23T22:01:26.342Z,22.90
2018-11-23T22:03:55.394Z,23.67
2018-11-23T22:06:24.740Z,19.20
2018-11-23T22:08:54.401Z,21.37
2018-11-23T22:11:23.779Z,19.63
2018-11-23T22:13:53.135Z,19.83
2018-11-23T22:16:22.410Z,15.67
2018-11-23T22:18:51.921Z,16.97
2018-11-23T22:21:21.291Z,16.47
2018-11-23T22:23:50.648Z,15.87
2018-11-23T22:26:20.037Z,14.47
2018-11-23T22:28:49.238Z,13.87
2018-11-23T22:31:18.712Z,13.63
2018-11-23T22:33:48.049Z,10.97
2018-11-23T22:36:17.365Z,12.50
2018-11-23T22:38:46.853Z,12.83
2018-11-23T22:41:16.311Z,11.70
2018-11-23T22:43:45.750Z,11.30
2018-11-23T22:46:14.939Z,15.00
2018-11-23T22:48:44.284Z,11.30
2018-11-23T22:51:13.792Z,11.97
2018-11-23T22:53:43.199Z,10.20
2018-11-23T22:56:12.575Z,9.00
2018-11-23T22:58:42.048Z,8.87
2018-11-23T23:01:11.331Z,9.07
2018-11-23T23:03:40.742Z,7.70
2018-11-23T23:06:10.060Z,7.83
2018-11-23T23:08:39.553Z,7.97
2018-11-23T23:11:08.940Z,8.27
2018-11-23T23:13:38.271Z,7.53
2018-11-23T23:16:07.665Z,7.87
2018-11-23T23:18:37.294Z,7.80
2018-11-23T23:21:06.636Z,7.00
2018-11-23T23:23:36.102Z,7.83
2018-11-23T23:26:05.422Z,6.70
2018-11-23T23:28:34.874Z,8.03
2018-11-23T23:31:03.768Z,7.60
2018-11-23T23:33:33.284Z,8.77
2018-11-23T23:36:02.669Z,8.60
2018-11-23T23:38:31.967Z,8.07
2018-11-23T23:41:01.124Z,8.23
2018-11-23T23:43:30.496Z,9.90
2018-11-23T23:45:59.836Z,7.07
2018-11-23T23:48:29.265Z,6.27
2018-11-23T23:50:58.250Z,7.53
2018-11-23T23:53:27.451Z,6.07
2018-11-23T23:55:56.805Z,6.40
2018-11-23T23:58:25.947Z,5.80
